createdAt,value
2019-02-20T00:00:40.101Z,1.57
2019-02-20T00:03:08.970Z,2.45
2019-02-20T00:05:38.287Z,2.08
2019-02-20T00:08:07.377Z,2.05
2019-02-20T00:10:36.279Z,2.70
2019-02-20T00:13:05.879Z,2.65
2019-02-20T00:15:34.874Z,2.25
2019-02-20T00:18:04.720Z,2.25
2019-02-20T00:20:33.860Z,2.85
2019-02-20T00:23:02.979Z,3.08
2019-02-20T00:25:31.965Z,2.20
2019-02-20T00:28:00.949Z,2.35
2019-02-20T00:30:30.056Z,2.33
2019-02-20T00:32:59.165Z,2.90
2019-02-20T00:35:28.367Z,2.72
2019-02-20T00:37:57.456Z,2.83
2019-02-20T00:40:26.720Z,2.10
2019-02-20T00:42:55.882Z,2.75
2019-02-20T00:45:32.615Z,2.40
2019-02-20T00:48:05.934Z,3.08
2019-02-20T00:50:36.527Z,2.87
2019-02-20T00:53:09.836Z,2.67
2019-02-20T00:55:38.703Z,2.98
2019-02-20T00:58:07.596Z,2.10
2019-02-20T01:00:36.479Z,2.55
2019-02-20T01:03:05.598Z,2.87
2019-02-20T01:05:34.618Z,2.87
2019-02-20T01:08:04.006Z,3.15
2019-02-20T01:10:33.135Z,3.35
2019-02-20T01:13:02.173Z,2.35
2019-02-20T01:15:31.492Z,2.45
2019-02-20T01:18:00.474Z,2.80
2019-02-20T01:20:29.368Z,2.37
2019-02-20T01:23:00.061Z,2.83
2019-02-20T01:25:29.197Z,3.08
2019-02-20T01:27:58.294Z,3.30
2019-02-20T01:30:27.395Z,2.72
2019-02-20T01:32:56.494Z,2.87
2019-02-20T01:35:25.570Z,2.80
2019-02-20T01:37:54.774Z,2.20
2019-02-20T01:40:23.877Z,2.52
2019-02-20T01:42:52.974Z,2.65
2019-02-20T01:45:22.045Z,3.02
2019-02-20T01:47:51.155Z,2.40
2019-02-20T01:50:20.141Z,2.75
2019-02-20T01:52:49.246Z,2.80
2019-02-20T01:55:18.348Z,2.80
2019-02-20T01:57:47.434Z,2.22
2019-02-20T02:00:16.539Z,3.10
2019-02-20T02:02:45.634Z,2.58
2019-02-20T02:05:15.916Z,3.15
2019-02-20T02:07:45.354Z,3.30
2019-02-20T02:10:14.336Z,2.72
2019-02-20T02:12:43.334Z,2.60
2019-02-20T02:15:20.039Z,3.37
2019-02-20T02:17:42.851Z,3.45
2019-02-20T02:20:11.839Z,3.30
2019-02-20T02:22:40.985Z,3.00
2019-02-20T02:25:10.320Z,2.90
2019-02-20T02:27:39.356Z,3.80
2019-02-20T02:30:13.875Z,2.30
2019-02-20T02:32:42.985Z,2.35
2019-02-20T02:35:11.945Z,2.70
2019-02-20T02:37:41.144Z,2.40
2019-02-20T02:40:10.255Z,2.85
2019-02-20T02:42:39.458Z,3.27
2019-02-20T02:45:08.543Z,2.42
2019-02-20T02:47:37.673Z,3.10
2019-02-20T02:50:08.137Z,3.02
2019-02-20T02:52:37.355Z,3.08
2019-02-20T02:55:06.649Z,2.70
2019-02-20T02:57:35.707Z,2.80
2019-02-20T03:00:08.025Z,3.55
2019-02-20T03:02:36.917Z,3.47
2019-02-20T03:05:07.180Z,3.40
2019-02-20T03:07:36.331Z,2.80
2019-02-20T03:10:06.906Z,3.27
2019-02-20T03:12:35.852Z,3.80
2019-02-20T03:15:07.389Z,3.35
2019-02-20T03:17:36.451Z,4.15
2019-02-20T03:20:08.192Z,3.65
2019-02-20T03:22:37.418Z,3.98
2019-02-20T03:25:06.967Z,3.85
2019-02-20T03:27:36.978Z,3.80
2019-02-20T03:30:07.729Z,4.30
2019-02-20T03:32:36.820Z,4.12
2019-02-20T03:35:07.455Z,3.12
2019-02-20T03:37:36.754Z,3.15
2019-02-20T03:40:07.597Z,3.55
2019-02-20T03:42:36.676Z,4.10
2019-02-20T03:45:07.349Z,2.58
2019-02-20T03:47:36.276Z,3.67
2019-02-20T03:50:06.324Z,3.67
2019-02-20T03:52:35.614Z,3.47
2019-02-20T03:55:06.354Z,3.80
2019-02-20T03:57:35.447Z,3.27
2019-02-20T04:00:06.368Z,3.40
2019-02-20T04:02:35.475Z,3.55
2019-02-20T04:05:05.386Z,3.22
2019-02-20T04:07:34.694Z,3.50
2019-02-20T04:10:04.209Z,3.27
2019-02-20T04:12:33.302Z,3.65
2019-02-20T04:15:02.383Z,3.85
2019-02-20T04:17:31.476Z,3.98
2019-02-20T04:20:00.475Z,3.58
2019-02-20T04:22:29.675Z,3.67
2019-02-20T04:24:58.776Z,3.62
2019-02-20T04:27:27.774Z,4.03
2019-02-20T04:29:56.975Z,5.65
2019-02-20T04:32:25.955Z,4.53
2019-02-20T04:34:54.843Z,5.47
2019-02-20T04:37:24.425Z,5.80
2019-02-20T04:39:53.354Z,6.15
2019-02-20T04:42:22.449Z,5.58
2019-02-20T04:44:51.636Z,5.97
2019-02-20T04:47:20.737Z,6.53
2019-02-20T04:49:49.604Z,5.80
2019-02-20T04:52:18.817Z,4.75
2019-02-20T04:54:47.915Z,5.53
2019-02-20T04:57:17.014Z,6.17
2019-02-20T04:59:46.100Z,4.22
2019-02-20T05:02:15.094Z,5.42
2019-02-20T05:04:44.195Z,6.20
2019-02-20T05:07:13.495Z,5.37
2019-02-20T05:09:42.582Z,5.95
2019-02-20T05:12:11.875Z,6.78
2019-02-20T05:14:41.076Z,5.10
2019-02-20T05:17:10.176Z,5.75
2019-02-20T05:19:39.376Z,5.40
2019-02-20T05:22:08.900Z,5.08
2019-02-20T05:24:37.976Z,5.35
2019-02-20T05:27:07.079Z,4.85
2019-02-20T05:29:36.174Z,5.62
2019-02-20T05:32:05.162Z,6.97
2019-02-20T05:34:34.262Z,5.67
2019-02-20T05:37:03.555Z,5.83
2019-02-20T05:39:32.658Z,4.25
2019-02-20T05:42:01.734Z,4.78
2019-02-20T05:44:30.847Z,5.22
2019-02-20T05:46:59.935Z,4.80
2019-02-20T05:49:29.047Z,5.00
2019-02-20T05:51:58.235Z,3.80
2019-02-20T05:54:34.116Z,4.37
2019-02-20T05:56:57.955Z,4.37
2019-02-20T05:59:27.256Z,5.62
2019-02-20T06:01:56.140Z,4.90
2019-02-20T06:04:25.241Z,5.33
2019-02-20T06:06:54.436Z,3.92
2019-02-20T06:09:24.798Z,6.50
2019-02-20T06:11:53.954Z,4.00
2019-02-20T06:14:23.152Z,5.85
2019-02-20T06:16:52.040Z,4.17
2019-02-20T06:19:20.930Z,5.80
2019-02-20T06:21:50.256Z,5.70
2019-02-20T06:24:19.343Z,3.85
2019-02-20T06:26:48.437Z,3.50
2019-02-20T06:29:17.534Z,4.83
2019-02-20T06:31:46.615Z,3.12
2019-02-20T06:34:15.814Z,4.30
2019-02-20T06:36:45.014Z,5.12
2019-02-20T06:39:14.019Z,5.83
2019-02-20T06:41:43.095Z,4.35
2019-02-20T06:44:12.095Z,4.20
2019-02-20T06:46:41.076Z,5.97
2019-02-20T06:49:10.078Z,5.17
2019-02-20T06:51:39.064Z,6.08
2019-02-20T06:54:07.956Z,4.97
2019-02-20T06:56:37.076Z,4.90
2019-02-20T06:59:06.254Z,5.58
2019-02-20T07:01:35.555Z,4.67
2019-02-20T07:04:04.749Z,3.98
2019-02-20T07:06:39.681Z,5.10
2019-02-20T07:09:29.876Z,4.53
2019-02-20T07:12:14.040Z,6.10
2019-02-20T07:14:51.813Z,4.55
2019-02-20T07:17:39.254Z,5.50
2019-02-20T07:20:20.235Z,4.40
2019-02-20T07:23:15.135Z,4.67
2019-02-20T07:26:08.604Z,4.37
2019-02-20T07:29:09.854Z,4.80
2019-02-20T07:31:38.923Z,5.90
2019-02-20T07:34:07.938Z,4.22
2019-02-20T07:36:37.337Z,5.60
2019-02-20T07:39:06.526Z,4.17
2019-02-20T07:41:35.635Z,4.45
2019-02-20T07:44:04.717Z,5.50
2019-02-20T07:46:33.815Z,3.95
2019-02-20T07:49:02.794Z,3.80
2019-02-20T07:51:31.998Z,3.25
2019-02-20T07:54:00.995Z,3.52
2019-02-20T07:56:29.995Z,4.17
2019-02-20T07:58:59.295Z,3.92
2019-02-20T08:01:28.275Z,4.00
2019-02-20T08:03:57.274Z,3.95
2019-02-20T08:06:26.574Z,4.28
2019-02-20T08:08:55.674Z,4.08
2019-02-20T08:11:24.654Z,4.58
2019-02-20T08:13:53.775Z,4.72
2019-02-20T08:16:22.746Z,4.97
2019-02-20T08:18:51.954Z,4.70
2019-02-20T08:21:21.355Z,4.50
2019-02-20T08:23:50.457Z,4.67
2019-02-20T08:26:19.454Z,4.87
2019-02-20T08:28:48.655Z,4.80
2019-02-20T08:31:17.735Z,4.37
2019-02-20T08:33:46.820Z,4.20
2019-02-20T08:36:16.125Z,4.17
2019-02-20T08:38:45.235Z,4.37
2019-02-20T08:41:14.344Z,4.78
2019-02-20T08:43:43.734Z,4.22
2019-02-20T08:46:12.814Z,4.92
2019-02-20T08:48:41.914Z,4.37
2019-02-20T08:51:11.117Z,4.50
2019-02-20T08:53:40.194Z,5.00
2019-02-20T08:56:09.298Z,4.92
2019-02-20T08:58:38.596Z,4.80
2019-02-20T09:01:07.580Z,4.28
2019-02-20T09:03:36.794Z,5.33
2019-02-20T09:06:06.094Z,4.58
2019-02-20T09:08:35.069Z,5.08
2019-02-20T09:11:04.175Z,5.55
2019-02-20T09:13:33.274Z,4.90
2019-02-20T09:16:02.460Z,5.03
2019-02-20T09:18:31.565Z,6.35
2019-02-20T09:21:00.675Z,4.72
2019-02-20T09:23:29.894Z,5.75
2019-02-20T09:25:58.957Z,5.62
2019-02-20T09:28:28.278Z,5.22
2019-02-20T09:30:57.562Z,5.40
2019-02-20T09:33:26.432Z,4.75
2019-02-20T09:35:55.655Z,4.90
2019-02-20T09:38:24.629Z,5.08
2019-02-20T09:40:53.828Z,5.05
2019-02-20T09:43:22.940Z,5.60
2019-02-20T09:45:52.035Z,6.20
2019-02-20T09:48:21.131Z,6.17
2019-02-20T09:50:50.434Z,7.03
2019-02-20T09:53:19.414Z,6.92
2019-02-20T09:55:51.455Z,5.75
2019-02-20T09:58:19.130Z,6.00
2019-02-20T10:00:48.258Z,5.80
2019-02-20T10:03:17.235Z,5.70
2019-02-20T10:05:46.435Z,6.28
2019-02-20T10:08:15.535Z,5.33
2019-02-20T10:10:44.734Z,6.35
2019-02-20T10:13:14.022Z,6.85
2019-02-20T10:15:44.189Z,6.50
2019-02-20T10:18:13.256Z,6.33
2019-02-20T10:20:42.530Z,6.00
2019-02-20T10:23:11.642Z,6.47
2019-02-20T10:25:40.735Z,5.95
2019-02-20T10:28:09.726Z,5.33
2019-02-20T10:30:38.914Z,6.08
2019-02-20T10:33:07.904Z,6.42
2019-02-20T10:35:37.314Z,5.40
2019-02-20T10:38:06.314Z,5.40
2019-02-20T10:40:35.484Z,7.20
2019-02-20T10:43:04.700Z,5.12
2019-02-20T10:45:34.816Z,6.35
2019-02-20T10:48:04.017Z,6.60
2019-02-20T10:50:33.114Z,5.65
2019-02-20T10:53:02.231Z,5.97
2019-02-20T10:55:31.633Z,6.42
2019-02-20T10:58:00.826Z,6.28
2019-02-20T11:00:30.217Z,6.00
2019-02-20T11:02:59.208Z,5.35
2019-02-20T11:05:28.296Z,5.85
2019-02-20T11:07:57.184Z,6.25
2019-02-20T11:10:26.376Z,5.60
2019-02-20T11:12:55.477Z,5.97
2019-02-20T11:15:24.576Z,5.15
2019-02-20T11:17:53.776Z,5.10
2019-02-20T11:20:22.865Z,5.42
2019-02-20T11:22:52.302Z,5.05
2019-02-20T11:25:21.578Z,5.45
2019-02-20T11:27:50.785Z,5.37
2019-02-20T11:30:22.617Z,5.12
2019-02-20T11:32:51.740Z,4.72
2019-02-20T11:35:21.146Z,4.87
2019-02-20T11:37:51.097Z,5.33
2019-02-20T11:40:20.556Z,5.67
2019-02-20T11:42:49.656Z,5.65
2019-02-20T11:45:18.936Z,4.15
2019-02-20T11:47:48.144Z,4.80
2019-02-20T11:50:17.226Z,4.83
2019-02-20T11:52:46.336Z,5.20
2019-02-20T11:55:16.330Z,4.55
2019-02-20T11:57:45.336Z,5.72
2019-02-20T12:00:16.431Z,5.50
2019-02-20T12:02:45.773Z,5.15
2019-02-20T12:05:14.776Z,4.35
2019-02-20T12:07:44.085Z,4.87
2019-02-20T12:10:15.571Z,5.10
2019-02-20T12:12:44.836Z,4.40
2019-02-20T12:15:13.936Z,6.55
2019-02-20T12:17:43.255Z,5.00
2019-02-20T12:20:12.538Z,6.03
2019-02-20T12:22:41.501Z,5.17
2019-02-20T12:25:11.146Z,5.03
2019-02-20T12:27:40.466Z,5.03
2019-02-20T12:30:13.277Z,5.28
2019-02-20T12:32:42.417Z,5.00
2019-02-20T12:35:11.497Z,4.45
2019-02-20T12:37:41.528Z,5.47
2019-02-20T12:40:11.463Z,4.70
2019-02-20T12:42:41.941Z,4.40
2019-02-20T12:45:11.177Z,4.65
2019-02-20T12:47:40.140Z,5.08
2019-02-20T12:50:14.585Z,3.95
2019-02-20T12:52:43.759Z,4.40
2019-02-20T12:55:12.973Z,4.37
2019-02-20T12:57:42.173Z,3.80
2019-02-20T13:00:14.029Z,4.15
2019-02-20T13:02:43.573Z,3.67
2019-02-20T13:05:12.734Z,4.95
2019-02-20T13:07:41.917Z,3.52
2019-02-20T13:10:11.236Z,4.22
2019-02-20T13:12:40.437Z,3.30
2019-02-20T13:15:11.131Z,3.40
2019-02-20T13:17:40.667Z,3.72
2019-02-20T13:20:10.987Z,4.00
2019-02-20T13:22:40.703Z,3.67
2019-02-20T13:25:10.651Z,3.85
2019-02-20T13:27:40.263Z,3.55
2019-02-20T13:30:12.304Z,3.42
2019-02-20T13:32:41.586Z,4.20
2019-02-20T13:35:11.025Z,3.75
2019-02-20T13:37:40.088Z,3.95
2019-02-20T13:40:11.090Z,3.65
2019-02-20T13:42:40.146Z,3.62
2019-02-20T13:45:09.930Z,3.83
2019-02-20T13:47:40.464Z,3.67
2019-02-20T13:50:11.803Z,3.85
2019-02-20T13:52:41.501Z,3.45
2019-02-20T13:55:10.901Z,3.50
2019-02-20T13:57:39.782Z,3.62
2019-02-20T14:00:13.234Z,3.27
2019-02-20T14:02:42.180Z,3.75
2019-02-20T14:05:11.181Z,3.58
2019-02-20T14:07:42.633Z,3.47
2019-02-20T14:10:13.055Z,3.50
2019-02-20T14:12:42.158Z,3.25
2019-02-20T14:15:12.403Z,3.17
2019-02-20T14:17:41.798Z,3.67
2019-02-20T14:20:12.314Z,2.75
2019-02-20T14:22:41.875Z,3.30
2019-02-20T14:25:11.537Z,2.30
2019-02-20T14:27:40.736Z,2.83
2019-02-20T14:30:13.111Z,3.02
2019-02-20T14:32:42.404Z,3.40
2019-02-20T14:35:14.943Z,3.25
2019-02-20T14:37:43.976Z,3.45
2019-02-20T14:40:13.712Z,3.40
2019-02-20T14:42:42.895Z,2.80
2019-02-20T14:45:16.494Z,3.85
2019-02-20T14:47:45.898Z,2.90
2019-02-20T14:50:15.095Z,2.77
2019-02-20T14:52:44.193Z,2.67
2019-02-20T14:55:13.664Z,2.33
2019-02-20T14:57:42.651Z,2.90
2019-02-20T15:00:15.779Z,2.55
2019-02-20T15:02:45.157Z,2.00
2019-02-20T15:05:14.256Z,2.67
2019-02-20T15:07:44.884Z,3.00
2019-02-20T15:10:15.228Z,3.00
2019-02-20T15:12:46.490Z,3.10
2019-02-20T15:15:15.134Z,2.80
2019-02-20T15:17:45.196Z,2.75
2019-02-20T15:20:15.936Z,2.80
2019-02-20T15:22:46.331Z,2.72
2019-02-20T15:25:18.277Z,2.35
2019-02-20T15:27:50.322Z,2.90
2019-02-20T15:30:22.251Z,2.83
2019-02-20T15:32:54.325Z,2.83
2019-02-20T15:35:25.412Z,3.00
2019-02-20T15:37:56.892Z,2.80
2019-02-20T15:40:26.422Z,2.87
2019-02-20T15:42:56.191Z,2.67
2019-02-20T15:45:26.212Z,2.65
2019-02-20T15:47:55.800Z,2.70
2019-02-20T15:50:24.903Z,2.70
2019-02-20T15:52:54.101Z,2.62
2019-02-20T15:55:23.694Z,2.33
2019-02-20T15:57:52.819Z,2.47
2019-02-20T16:00:23.341Z,2.45
2019-02-20T16:02:52.537Z,2.40
2019-02-20T16:05:21.637Z,2.60
2019-02-20T16:07:50.718Z,2.62
2019-02-20T16:10:21.556Z,2.72
2019-02-20T16:12:50.458Z,2.30
2019-02-20T16:15:19.756Z,2.50
2019-02-20T16:17:49.190Z,2.47
2019-02-20T16:20:18.551Z,2.77
2019-02-20T16:22:47.429Z,2.40
2019-02-20T16:25:17.304Z,2.70
2019-02-20T16:27:47.522Z,2.67
2019-02-20T16:30:16.876Z,2.55
2019-02-20T16:32:46.076Z,2.90
2019-02-20T16:35:15.577Z,2.52
2019-02-20T16:37:44.464Z,3.05
2019-02-20T16:40:15.460Z,2.72
2019-02-20T16:42:44.541Z,2.40
2019-02-20T16:45:16.675Z,2.12
2019-02-20T16:47:45.784Z,2.70
2019-02-20T16:50:15.394Z,3.47
2019-02-20T16:52:44.476Z,3.05
2019-02-20T16:55:19.049Z,2.35
2019-02-20T16:57:44.302Z,2.37
2019-02-20T17:00:15.236Z,2.62
2019-02-20T17:02:44.556Z,2.77
2019-02-20T17:05:16.022Z,3.00
2019-02-20T17:07:45.096Z,3.50
2019-02-20T17:10:15.568Z,4.97
2019-02-20T17:12:44.620Z,3.50
2019-02-20T17:15:15.415Z,3.62
2019-02-20T17:17:44.537Z,3.62
2019-02-20T17:20:17.626Z,3.67
2019-02-20T17:22:46.640Z,3.00
2019-02-20T17:25:16.988Z,2.77
2019-02-20T17:27:46.137Z,3.40
2019-02-20T17:30:17.851Z,2.95
2019-02-20T17:32:47.488Z,3.05
2019-02-20T17:35:17.284Z,3.30
2019-02-20T17:37:46.516Z,3.50
2019-02-20T17:40:16.383Z,3.60
2019-02-20T17:42:45.748Z,3.52
2019-02-20T17:45:18.823Z,4.15
2019-02-20T17:47:49.995Z,4.45
2019-02-20T17:50:21.509Z,4.20
2019-02-20T17:52:50.616Z,3.67
2019-02-20T17:55:19.917Z,3.95
2019-02-20T17:57:49.017Z,3.85
2019-02-20T18:00:20.237Z,4.85
2019-02-20T18:02:49.289Z,4.40
2019-02-20T18:05:18.377Z,4.28
2019-02-20T18:07:51.492Z,4.78
2019-02-20T18:10:18.115Z,3.60
2019-02-20T18:12:47.202Z,3.92
2019-02-20T18:15:16.176Z,3.92
2019-02-20T18:17:45.399Z,3.85
2019-02-20T18:20:14.480Z,3.67
2019-02-20T18:22:43.889Z,4.10
2019-02-20T18:25:13.672Z,4.47
2019-02-20T18:27:42.900Z,4.10
2019-02-20T18:30:13.682Z,3.85
2019-02-20T18:32:43.165Z,3.95
2019-02-20T18:35:14.281Z,4.10
2019-02-20T18:37:43.271Z,4.33
2019-02-20T18:40:15.639Z,4.25
2019-02-20T18:42:44.657Z,4.65
2019-02-20T18:45:14.962Z,4.72
2019-02-20T18:47:44.525Z,4.05
2019-02-20T18:50:16.563Z,5.55
2019-02-20T18:52:45.745Z,4.15
2019-02-20T18:55:15.280Z,4.58
2019-02-20T18:57:44.473Z,4.67
2019-02-20T19:00:15.842Z,4.28
2019-02-20T19:02:44.942Z,4.08
2019-02-20T19:05:14.189Z,4.70
2019-02-20T19:07:43.448Z,4.70
2019-02-20T19:10:30.622Z,5.22
2019-02-20T19:13:17.927Z,5.30
2019-02-20T19:16:04.849Z,5.97
2019-02-20T19:18:36.801Z,5.28
2019-02-20T19:21:17.880Z,5.92
2019-02-20T19:24:04.984Z,5.12
2019-02-20T19:26:39.710Z,6.37
2019-02-20T19:29:13.015Z,6.30
2019-02-20T19:31:54.175Z,5.78
2019-02-20T19:34:40.052Z,6.03
2019-02-20T19:37:39.496Z,6.10
2019-02-20T19:40:26.717Z,6.22
2019-02-20T19:43:04.946Z,6.55
2019-02-20T19:46:01.154Z,7.62
2019-02-20T19:48:35.888Z,8.28
2019-02-20T19:51:24.617Z,7.87
2019-02-20T19:54:12.168Z,6.45
2019-02-20T19:57:18.639Z,6.40
2019-02-20T19:59:59.494Z,7.42
2019-02-20T20:02:48.988Z,5.58
2019-02-20T20:05:42.759Z,6.85
2019-02-20T20:11:32.441Z,6.45
2019-02-20T20:14:11.398Z,6.78
2019-02-20T20:17:17.320Z,5.92
2019-02-20T20:20:05.876Z,6.25
2019-02-20T20:22:46.957Z,4.95
2019-02-20T20:25:19.044Z,7.37
2019-02-20T20:28:09.666Z,6.75
2019-02-20T20:31:01.667Z,6.42
2019-02-20T20:33:51.669Z,6.53
2019-02-20T20:36:54.437Z,5.90
2019-02-20T20:39:38.584Z,5.50
2019-02-20T20:42:22.302Z,5.25
2019-02-20T20:45:03.177Z,4.20
2019-02-20T20:47:37.627Z,6.25
2019-02-20T20:50:27.796Z,4.53
2019-02-20T20:53:16.537Z,5.47
2019-02-20T20:56:04.198Z,5.15
2019-02-20T20:58:36.137Z,3.50
2019-02-20T21:01:11.158Z,4.78
2019-02-20T21:03:55.111Z,5.22
2019-02-20T21:06:45.416Z,5.58
2019-02-20T21:09:26.577Z,3.62
2019-02-20T21:12:32.860Z,3.52
2019-02-20T21:15:38.096Z,3.05
2019-02-20T21:18:27.174Z,4.83
2019-02-20T21:20:59.216Z,4.15
2019-02-20T21:23:34.365Z,4.97
2019-02-20T21:26:12.251Z,4.80
2019-02-20T21:28:59.372Z,4.20
2019-02-20T21:31:53.692Z,4.50
2019-02-20T21:34:43.956Z,4.67
2019-02-20T21:37:40.596Z,4.00
2019-02-20T21:40:15.743Z,4.15
2019-02-20T21:42:56.394Z,3.75
2019-02-20T21:45:34.325Z,4.15
2019-02-20T21:48:15.062Z,4.15
2019-02-20T21:50:53.276Z,3.67
2019-02-20T21:53:40.669Z,4.05
2019-02-20T21:56:22.396Z,3.55
2019-02-20T21:59:12.276Z,3.62
2019-02-20T22:02:02.379Z,3.62
2019-02-20T22:04:46.224Z,3.20
2019-02-20T22:07:35.077Z,4.12
2019-02-20T22:10:09.599Z,4.08
2019-02-20T22:12:51.897Z,4.62
2019-02-20T22:15:32.359Z,4.50
2019-02-20T22:18:10.056Z,4.30
2019-02-20T22:21:03.016Z,3.52
2019-02-20T22:23:47.056Z,4.15
2019-02-20T22:26:33.540Z,4.65
2019-02-20T22:29:28.142Z,4.28
2019-02-20T22:32:18.331Z,4.85
2019-02-20T22:35:02.391Z,4.47
2019-02-20T22:37:52.585Z,3.70
2019-02-20T22:40:27.495Z,3.70
2019-02-20T22:43:30.289Z,4.55
2019-02-20T22:46:14.557Z,5.40
2019-02-20T22:48:59.216Z,3.75
2019-02-20T22:51:43.164Z,5.40
2019-02-20T22:54:27.696Z,4.72
2019-02-20T23:00:51.198Z,4.80
2019-02-20T23:03:28.557Z,4.70
2019-02-20T23:06:32.497Z,5.00
2019-02-20T23:09:16.536Z,4.75
2019-02-20T23:11:50.782Z,5.47
2019-02-20T23:14:40.234Z,3.50
2019-02-20T23:17:09.326Z,6.00
2019-02-20T23:19:38.424Z,5.55
2019-02-20T23:22:07.515Z,5.28
2019-02-20T23:24:36.503Z,5.40
2019-02-20T23:27:05.698Z,4.47
2019-02-20T23:29:34.717Z,5.55
2019-02-20T23:32:04.025Z,5.00
2019-02-20T23:34:33.219Z,5.42
2019-02-20T23:37:02.297Z,5.40
2019-02-20T23:39:31.271Z,5.05
2019-02-20T23:42:00.284Z,6.05
2019-02-20T23:44:29.263Z,5.78
2019-02-20T23:46:58.386Z,4.60
2019-02-20T23:49:27.455Z,5.08
2019-02-20T23:51:56.466Z,5.45
2019-02-20T23:54:25.720Z,5.87
2019-02-20T23:56:54.857Z,5.42
2019-02-20T23:59:23.857Z,5.67
